Terminal Aerodrome Forecast
Issued by NWS

Home | Current Version | Previous Version | Text Only | Print | Product List | Glossary On
Versions: 1 2 3 4 5 6 7 8 9 10 11 12 13
000
FTUS44 KCRP 312329
TAFLRD
TAF
KLRD 312329Z 0100/0124 07009KT P6SM BKN080
     FM010300 VRB04KT P6SM SKC
     FM011600 01006KT P6SM SCT050=

USA.gov is the U.S. government's official web portal to all federal, state and local government web resources and services.